Time;durP1;ratioP1;P1;durP2;ratioP2;P2;SDS_P1;SDS_P2;PMS_P1;PMS_P2;Temp;Humidity;BMP_temperature;BMP_pressure;BME280_temperature;BME280_humidity;BME280_pressure;Samples;Min_cycle;Max_cycle;Signal;HPM_P1;HPM_P2
2021/09/19 00:01:17;;;;;;;1.87;1.20;;;;;;;;;;5053361;28;20321;-71
2021/09/19 00:03:42;;;;;;;2.40;1.10;;;;;;;;;;5052791;28;20259;-71
2021/09/19 00:06:08;;;;;;;3.00;1.23;;;;;;;;;;5053358;28;20327;-71
2021/09/19 00:08:33;;;;;;;1.40;0.95;;;;;;;;;;5053039;28;20090;-71
2021/09/19 00:10:58;;;;;;;2.97;1.25;;;;;;;;;;5052092;28;20020;-71
2021/09/19 00:13:24;;;;;;;6.47;1.35;;;;;;;;;;5052113;28;20029;-71
2021/09/19 00:15:49;;;;;;;7.55;1.88;;;;;;;;;;5052702;28;20033;-71
2021/09/19 00:18:14;;;;;;;3.65;1.00;;;;;;;;;;5047715;28;20123;-71
2021/09/19 00:20:40;;;;;;;1.73;1.02;;;;;;;;;;5048025;28;20103;-71
2021/09/19 00:23:06;;;;;;;2.42;0.90;;;;;;;;;;5053038;28;20013;-71
2021/09/19 00:25:31;;;;;;;2.40;1.30;;;;;;;;;;5052869;28;20040;-71
2021/09/19 00:27:57;;;;;;;4.18;1.70;;;;;;;;;;5053110;28;20473;-71
2021/09/19 00:30:22;;;;;;;6.03;1.42;;;;;;;;;;5052972;28;20021;-71
2021/09/19 00:32:47;;;;;;;1.98;1.00;;;;;;;;;;5052715;28;20108;-71
2021/09/19 00:35:12;;;;;;;2.13;1.03;;;;;;;;;;5052806;28;20037;-71
2021/09/19 00:37:38;;;;;;;2.85;1.25;;;;;;;;;;5052057;28;20263;-71
2021/09/19 00:40:04;;;;;;;4.53;0.85;;;;;;;;;;5052854;28;20013;-71
2021/09/19 00:42:29;;;;;;;3.38;0.90;;;;;;;;;;5053062;28;20020;-71
2021/09/19 00:44:58;;;;;;;2.33;0.77;;;;;;;;;;5052626;28;20021;-71
2021/09/19 00:47:23;;;;;;;3.13;0.80;;;;;;;;;;5052658;28;20247;-71
2021/09/19 00:49:48;;;;;;;1.45;1.00;;;;;;;;;;5052872;28;20112;-71
2021/09/19 00:52:15;;;;;;;1.58;0.80;;;;;;;;;;5052534;28;20017;-71
2021/09/19 00:54:40;;;;;;;1.67;0.80;;;;;;;;;;5052726;28;20501;-71
2021/09/19 00:57:06;;;;;;;3.20;0.80;;;;;;;;;;5052444;28;20033;-71
2021/09/19 00:59:34;;;;;;;1.67;0.73;;;;;;;;;;5052668;28;20444;-71
2021/09/19 01:02:00;;;;;;;4.50;0.88;;;;;;;;;;5052382;28;20056;-71
2021/09/19 01:04:25;;;;;;;5.07;0.95;;;;;;;;;;5052437;28;20404;-71
2021/09/19 01:06:50;;;;;;;1.23;0.70;;;;;;;;;;5052126;28;20107;-71
2021/09/19 01:09:16;;;;;;;1.77;0.90;;;;;;;;;;5052266;28;20020;-71
2021/09/19 01:11:41;;;;;;;0.90;0.60;;;;;;;;;;5051285;28;20023;-71
2021/09/19 01:14:07;;;;;;;2.35;1.02;;;;;;;;;;5048555;28;20017;-71
2021/09/19 01:16:32;;;;;;;1.00;0.80;;;;;;;;;;5052127;28;20025;-71
2021/09/19 01:18:59;;;;;;;1.27;0.90;;;;;;;;;;5051824;28;20032;-71
2021/09/19 01:21:25;;;;;;;1.70;0.93;;;;;;;;;;5051853;28;20017;-71
2021/09/19 01:23:55;;;;;;;2.65;0.90;;;;;;;;;;5051734;28;20469;-71
2021/09/19 01:26:20;;;;;;;4.28;0.70;;;;;;;;;;5051871;28;20055;-71
2021/09/19 01:28:45;;;;;;;3.47;1.10;;;;;;;;;;5052156;28;20060;-71
2021/09/19 01:31:11;;;;;;;4.07;1.00;;;;;;;;;;5052296;28;20028;-71
2021/09/19 01:33:36;;;;;;;4.30;0.80;;;;;;;;;;5051717;28;20741;-71
2021/09/19 01:36:06;;;;;;;1.98;0.60;;;;;;;;;;5051543;28;20278;-71
2021/09/19 01:38:31;;;;;;;2.08;0.90;;;;;;;;;;5050502;28;20124;-71
2021/09/19 01:40:56;;;;;;;2.57;0.77;;;;;;;;;;5051630;28;20032;-71
2021/09/19 01:43:21;;;;;;;2.37;0.80;;;;;;;;;;5051794;28;20348;-71
2021/09/19 01:45:46;;;;;;;1.07;0.80;;;;;;;;;;5051532;28;20262;-71
2021/09/19 01:48:11;;;;;;;1.37;0.57;;;;;;;;;;5051530;28;20751;-71
2021/09/19 01:50:36;;;;;;;1.27;0.73;;;;;;;;;;5050721;28;20581;-71
2021/09/19 01:53:02;;;;;;;1.60;0.70;;;;;;;;;;5051495;28;20636;-71
2021/09/19 01:55:28;;;;;;;2.35;0.80;;;;;;;;;;5051632;28;20321;-71
2021/09/19 01:57:54;;;;;;;4.82;0.73;;;;;;;;;;5051382;28;20013;-71
2021/09/19 02:00:21;;;;;;;2.38;0.70;;;;;;;;;;5051364;28;20104;-71
2021/09/19 02:02:46;;;;;;;0.93;0.60;;;;;;;;;;5051304;28;20021;-71
2021/09/19 02:05:12;;;;;;;1.92;0.75;;;;;;;;;;5051431;28;20020;-71
2021/09/19 02:07:38;;;;;;;1.88;1.02;;;;;;;;;;5051117;28;20158;-71
2021/09/19 02:10:05;;;;;;;1.00;0.75;;;;;;;;;;5051399;28;20074;-71
2021/09/19 02:12:30;;;;;;;0.98;0.70;;;;;;;;;;5051067;28;20052;-71
2021/09/19 02:14:55;;;;;;;3.22;1.02;;;;;;;;;;5050865;28;20064;-71
2021/09/19 02:17:20;;;;;;;1.73;0.73;;;;;;;;;;5051031;28;20025;-71
2021/09/19 02:19:46;;;;;;;2.70;0.90;;;;;;;;;;5051181;28;20983;-71
2021/09/19 02:22:12;;;;;;;1.30;1.00;;;;;;;;;;5051170;28;20283;-71
2021/09/19 02:24:37;;;;;;;2.38;0.80;;;;;;;;;;5050908;28;20364;-71
2021/09/19 02:27:02;;;;;;;3.67;0.85;;;;;;;;;;5077600;23;20092;-66
2021/09/19 02:29:28;;;;;;;1.13;0.82;;;;;;;;;;5039425;28;20469;-65
2021/09/19 02:31:53;;;;;;;1.88;0.93;;;;;;;;;;5039581;28;20021;-66
2021/09/19 02:34:18;;;;;;;2.22;0.80;;;;;;;;;;5050108;28;20302;-65
2021/09/19 02:36:43;;;;;;;5.55;1.20;;;;;;;;;;5042633;28;20429;-66
2021/09/19 02:39:09;;;;;;;1.13;0.65;;;;;;;;;;5029691;28;20462;-65
2021/09/19 02:41:34;;;;;;;1.17;0.65;;;;;;;;;;5031383;28;20061;-66
2021/09/19 02:44:00;;;;;;;3.13;1.08;;;;;;;;;;5029823;28;20061;-65
2021/09/19 02:46:25;;;;;;;0.98;0.63;;;;;;;;;;5029039;28;20021;-65
2021/09/19 02:48:50;;;;;;;2.43;0.97;;;;;;;;;;5026012;28;20102;-66
2021/09/19 02:51:15;;;;;;;1.30;0.80;;;;;;;;;;5043249;28;20642;-65
2021/09/19 02:53:40;;;;;;;1.60;1.00;;;;;;;;;;5029637;28;20329;-65
2021/09/19 02:56:06;;;;;;;2.30;0.80;;;;;;;;;;5029652;28;20299;-65
2021/09/19 02:58:31;;;;;;;1.57;0.80;;;;;;;;;;5030203;28;20318;-65
2021/09/19 03:00:56;;;;;;;1.48;0.90;;;;;;;;;;5030103;28;20288;-65
2021/09/19 03:03:21;;;;;;;1.85;1.05;;;;;;;;;;5034108;28;20231;-64
2021/09/19 03:05:46;;;;;;;5.03;0.80;;;;;;;;;;5035054;28;20117;-66
2021/09/19 03:08:11;;;;;;;2.43;0.97;;;;;;;;;;5033764;28;20260;-65
2021/09/19 03:10:37;;;;;;;2.63;1.00;;;;;;;;;;5033958;28;20621;-65
2021/09/19 03:13:02;;;;;;;1.23;0.95;;;;;;;;;;5033755;28;20343;-65
2021/09/19 03:15:27;;;;;;;1.88;1.13;;;;;;;;;;5033590;28;20064;-65
2021/09/19 03:17:53;;;;;;;1.30;0.85;;;;;;;;;;5033312;28;20032;-66
2021/09/19 03:20:19;;;;;;;4.80;1.00;;;;;;;;;;5036917;28;20021;-65
2021/09/19 03:22:44;;;;;;;1.77;0.88;;;;;;;;;;5035617;28;20067;-65
2021/09/19 03:25:10;;;;;;;1.67;1.08;;;;;;;;;;5042817;28;20021;-65
2021/09/19 03:27:35;;;;;;;2.08;1.08;;;;;;;;;;5034708;28;20032;-66
2021/09/19 03:30:00;;;;;;;1.70;0.93;;;;;;;;;;5039874;28;20044;-65
2021/09/19 03:32:26;;;;;;;5.70;0.90;;;;;;;;;;5050185;28;20031;-66
2021/09/19 03:34:51;;;;;;;2.88;1.50;;;;;;;;;;5033315;28;20048;-67
2021/09/19 03:37:16;;;;;;;1.60;1.20;;;;;;;;;;5042344;28;20029;-66
2021/09/19 03:39:41;;;;;;;2.67;1.10;;;;;;;;;;5039278;28;20120;-65
2021/09/19 03:42:07;;;;;;;3.47;1.35;;;;;;;;;;5041457;28;20627;-65
2021/09/19 03:44:32;;;;;;;4.20;1.37;;;;;;;;;;5032929;28;20104;-65
2021/09/19 03:46:57;;;;;;;3.65;1.10;;;;;;;;;;5032781;28;20267;-65
2021/09/19 03:49:22;;;;;;;4.35;1.13;;;;;;;;;;5031925;28;20021;-65
2021/09/19 03:51:47;;;;;;;2.10;1.20;;;;;;;;;;5033284;28;20075;-66
2021/09/19 03:54:13;;;;;;;2.97;1.57;;;;;;;;;;5032291;28;20823;-64
2021/09/19 03:56:38;;;;;;;1.98;1.08;;;;;;;;;;5033594;28;20266;-66
2021/09/19 03:59:03;;;;;;;4.25;1.95;;;;;;;;;;5033220;28;20052;-65
2021/09/19 04:01:28;;;;;;;1.65;1.15;;;;;;;;;;5040922;28;20025;-66
2021/09/19 04:03:54;;;;;;;3.17;1.33;;;;;;;;;;5032725;28;20061;-65
2021/09/19 04:06:19;;;;;;;2.23;1.10;;;;;;;;;;5039059;28;20092;-65
2021/09/19 04:08:44;;;;;;;2.47;1.50;;;;;;;;;;5031513;28;20676;-65
2021/09/19 04:11:09;;;;;;;2.92;1.50;;;;;;;;;;5030945;28;20020;-65
2021/09/19 04:13:34;;;;;;;2.77;1.67;;;;;;;;;;5034265;28;20029;-65
2021/09/19 04:16:00;;;;;;;2.73;1.60;;;;;;;;;;5031701;28;20477;-65
2021/09/19 04:18:26;;;;;;;2.38;1.50;;;;;;;;;;5034300;28;20272;-66
2021/09/19 04:20:51;;;;;;;1.52;1.13;;;;;;;;;;5032341;28;20032;-66
2021/09/19 04:23:16;;;;;;;4.67;2.10;;;;;;;;;;5032647;28;20091;-66
2021/09/19 04:25:41;;;;;;;3.08;1.52;;;;;;;;;;5032869;28;20372;-66
2021/09/19 04:28:06;;;;;;;2.85;1.60;;;;;;;;;;5032554;28;20087;-66
2021/09/19 04:30:32;;;;;;;3.47;1.40;;;;;;;;;;5032685;28;20104;-66
2021/09/19 04:32:57;;;;;;;3.53;1.70;;;;;;;;;;5031958;28;20740;-66
2021/09/19 04:35:22;;;;;;;2.00;1.52;;;;;;;;;;5040639;28;20465;-66
2021/09/19 04:37:47;;;;;;;4.03;1.50;;;;;;;;;;5041773;28;20028;-67
2021/09/19 04:40:13;;;;;;;7.37;1.57;;;;;;;;;;5032732;28;20497;-67
2021/09/19 04:42:38;;;;;;;5.07;1.92;;;;;;;;;;5032734;28;20261;-66
2021/09/19 04:45:03;;;;;;;3.20;1.73;;;;;;;;;;5039480;28;20017;-67
2021/09/19 04:47:29;;;;;;;3.72;2.05;;;;;;;;;;5041022;28;20720;-67
2021/09/19 04:49:54;;;;;;;3.27;2.10;;;;;;;;;;5038215;28;20104;-65
2021/09/19 04:52:19;;;;;;;2.50;1.77;;;;;;;;;;5031784;28;20310;-65
2021/09/19 04:54:44;;;;;;;3.73;2.60;;;;;;;;;;5037645;28;20469;-66
2021/09/19 04:57:09;;;;;;;4.90;1.90;;;;;;;;;;5042737;28;20402;-65
2021/09/19 04:59:35;;;;;;;5.72;1.63;;;;;;;;;;5045591;28;20462;-67
2021/09/19 05:02:01;;;;;;;2.92;2.00;;;;;;;;;;5039099;28;20036;-66
2021/09/19 05:04:26;;;;;;;3.35;1.67;;;;;;;;;;5038653;28;20024;-65
2021/09/19 05:06:51;;;;;;;5.90;2.60;;;;;;;;;;5040417;28;20029;-66
2021/09/19 05:09:16;;;;;;;4.53;2.10;;;;;;;;;;5035223;28;20350;-65
2021/09/19 05:11:41;;;;;;;4.43;2.00;;;;;;;;;;5043689;28;20275;-65
2021/09/19 05:14:07;;;;;;;2.05;1.50;;;;;;;;;;5031542;28;20033;-66
2021/09/19 05:16:32;;;;;;;2.93;2.03;;;;;;;;;;5031788;28;20029;-65
2021/09/19 05:18:57;;;;;;;4.70;2.00;;;;;;;;;;5033909;28;20272;-65
2021/09/19 05:21:23;;;;;;;5.95;2.35;;;;;;;;;;5038755;28;20021;-66
2021/09/19 05:23:48;;;;;;;4.50;2.42;;;;;;;;;;5030738;28;20466;-65
2021/09/19 05:26:14;;;;;;;7.37;1.90;;;;;;;;;;5031212;28;20385;-65
2021/09/19 05:28:39;;;;;;;3.77;2.10;;;;;;;;;;5030998;28;20267;-65
2021/09/19 05:31:04;;;;;;;2.80;2.00;;;;;;;;;;5035784;28;20368;-65
2021/09/19 05:33:29;;;;;;;2.17;1.55;;;;;;;;;;5031125;28;20264;-65
2021/09/19 05:35:54;;;;;;;3.40;1.58;;;;;;;;;;5031226;28;20030;-65
2021/09/19 05:38:20;;;;;;;4.00;2.05;;;;;;;;;;5033413;28;20435;-65
2021/09/19 05:40:45;;;;;;;7.18;2.70;;;;;;;;;;5031098;28;20486;-65
2021/09/19 05:43:11;;;;;;;3.47;2.22;;;;;;;;;;5030985;28;20029;-65
2021/09/19 05:45:36;;;;;;;6.65;2.40;;;;;;;;;;5030725;28;20036;-66
2021/09/19 05:48:01;;;;;;;4.10;2.33;;;;;;;;;;5031515;28;20053;-65
2021/09/19 05:50:26;;;;;;;5.10;2.33;;;;;;;;;;5031989;28;20256;-65
2021/09/19 05:52:52;;;;;;;4.55;2.38;;;;;;;;;;5035416;28;20469;-65
2021/09/19 05:55:17;;;;;;;7.80;2.78;;;;;;;;;;5043823;28;20040;-65
2021/09/19 05:57:42;;;;;;;3.33;2.40;;;;;;;;;;5030533;28;20033;-66
2021/09/19 06:00:08;;;;;;;6.32;2.67;;;;;;;;;;5029878;28;20021;-66
2021/09/19 06:02:33;;;;;;;5.50;2.92;;;;;;;;;;5029994;28;20024;-65
2021/09/19 06:04:58;;;;;;;3.90;2.50;;;;;;;;;;5030843;28;20029;-65
2021/09/19 06:07:24;;;;;;;5.07;2.30;;;;;;;;;;5030565;28;20636;-65
2021/09/19 06:09:49;;;;;;;4.78;2.70;;;;;;;;;;5029259;28;20021;-65
2021/09/19 06:12:14;;;;;;;4.00;2.17;;;;;;;;;;5029743;28;20385;-65
2021/09/19 06:14:39;;;;;;;5.18;2.10;;;;;;;;;;5030494;28;20264;-65
2021/09/19 06:17:04;;;;;;;6.77;2.63;;;;;;;;;;5029707;28;20033;-65
2021/09/19 06:19:29;;;;;;;3.58;2.53;;;;;;;;;;5030638;28;20309;-65
2021/09/19 06:21:58;;;;;;;4.07;2.57;;;;;;;;;;5030286;28;20397;-65
2021/09/19 06:24:24;;;;;;;4.43;2.60;;;;;;;;;;5030356;28;20359;-66
2021/09/19 06:26:49;;;;;;;5.18;2.20;;;;;;;;;;5026460;28;20159;-65
2021/09/19 06:29:14;;;;;;;4.07;2.50;;;;;;;;;;5030073;28;20049;-65
2021/09/19 06:31:39;;;;;;;4.53;2.43;;;;;;;;;;5043895;28;20290;-65
2021/09/19 06:34:04;;;;;;;4.57;2.53;;;;;;;;;;5034742;28;20304;-67
2021/09/19 06:36:29;;;;;;;5.45;3.05;;;;;;;;;;5029538;28;20092;-66
2021/09/19 06:38:55;;;;;;;6.23;2.83;;;;;;;;;;5029645;28;20377;-66
2021/09/19 06:41:20;;;;;;;3.10;2.00;;;;;;;;;;5029974;28;20288;-67
2021/09/19 06:43:45;;;;;;;2.90;2.40;;;;;;;;;;5029816;28;20272;-66
2021/09/19 06:46:10;;;;;;;2.90;2.17;;;;;;;;;;5030358;28;20087;-65
2021/09/19 06:48:35;;;;;;;3.30;2.20;;;;;;;;;;5030046;28;20353;-65
2021/09/19 06:51:00;;;;;;;2.37;1.97;;;;;;;;;;5029480;28;20268;-66
2021/09/19 06:53:26;;;;;;;3.27;2.00;;;;;;;;;;5029653;28;20342;-66
2021/09/19 06:55:51;;;;;;;4.50;2.33;;;;;;;;;;5029612;28;20610;-63
2021/09/19 06:58:16;;;;;;;2.07;1.70;;;;;;;;;;5030299;28;20053;-62
2021/09/19 07:00:41;;;;;;;5.17;2.80;;;;;;;;;;5032909;28;20435;-63
2021/09/19 07:03:06;;;;;;;3.85;1.92;;;;;;;;;;5037373;28;20276;-64
2021/09/19 07:05:32;;;;;;;3.33;1.80;;;;;;;;;;5016861;28;20033;-63
2021/09/19 07:07:57;;;;;;;1.98;1.48;;;;;;;;;;5013798;28;20263;-63
2021/09/19 07:10:22;;;;;;;3.70;2.00;;;;;;;;;;5029453;28;20025;-63
2021/09/19 07:12:48;;;;;;;2.67;2.17;;;;;;;;;;5029503;28;20264;-66
2021/09/19 07:15:13;;;;;;;2.40;1.90;;;;;;;;;;5029686;28;20249;-65
2021/09/19 07:17:39;;;;;;;2.25;1.92;;;;;;;;;;5030447;28;20155;-65
2021/09/19 07:20:04;;;;;;;2.10;1.70;;;;;;;;;;5029995;28;20093;-63
2021/09/19 07:22:30;;;;;;;3.15;1.90;;;;;;;;;;5029720;28;20056;-63
2021/09/19 07:24:55;;;;;;;3.87;1.60;;;;;;;;;;5030361;28;20049;-63
2021/09/19 07:27:20;;;;;;;3.17;1.80;;;;;;;;;;5034160;28;20104;-66
2021/09/19 07:29:45;;;;;;;2.83;1.55;;;;;;;;;;5034893;28;21115;-66
2021/09/19 07:32:12;;;;;;;2.50;1.73;;;;;;;;;;5024375;28;20091;-65
2021/09/19 07:34:38;;;;;;;3.17;1.73;;;;;;;;;;5028031;28;20564;-66
2021/09/19 07:37:04;;;;;;;2.63;1.55;;;;;;;;;;5036168;28;20071;-64
2021/09/19 07:39:29;;;;;;;4.07;1.75;;;;;;;;;;5033630;28;20033;-64
2021/09/19 07:41:55;;;;;;;2.80;1.67;;;;;;;;;;5034231;28;20410;-65
2021/09/19 07:44:21;;;;;;;4.05;1.60;;;;;;;;;;5028495;28;20397;-65
2021/09/19 07:46:46;;;;;;;2.95;1.60;;;;;;;;;;5026044;28;20017;-64
2021/09/19 07:49:12;;;;;;;1.40;1.10;;;;;;;;;;5039535;28;20021;-64
2021/09/19 07:51:37;;;;;;;3.70;1.50;;;;;;;;;;5037683;28;20095;-64
2021/09/19 07:54:02;;;;;;;2.85;1.70;;;;;;;;;;5031645;28;20018;-64
2021/09/19 07:56:27;;;;;;;2.13;1.60;;;;;;;;;;5033975;28;20363;-65
2021/09/19 07:58:52;;;;;;;2.80;1.90;;;;;;;;;;5031708;28;20488;-64
2021/09/19 08:01:18;;;;;;;1.20;1.00;;;;;;;;;;5038158;28;20052;-64
2021/09/19 08:03:43;;;;;;;1.50;1.37;;;;;;;;;;5038056;28;20431;-65
2021/09/19 08:06:08;;;;;;;1.97;1.30;;;;;;;;;;5037269;28;20033;-63
2021/09/19 08:08:33;;;;;;;3.50;1.50;;;;;;;;;;5038150;28;20346;-64
2021/09/19 08:10:59;;;;;;;3.33;1.77;;;;;;;;;;5025280;28;20656;-63
2021/09/19 08:13:24;;;;;;;3.28;1.85;;;;;;;;;;5029789;28;20094;-64
2021/09/19 08:15:50;;;;;;;2.85;1.30;;;;;;;;;;5030448;28;20029;-64
2021/09/19 08:18:15;;;;;;;3.40;1.10;;;;;;;;;;5026814;28;20022;-64
2021/09/19 08:20:41;;;;;;;2.40;1.67;;;;;;;;;;5028816;28;20232;-64
2021/09/19 08:23:06;;;;;;;3.03;1.50;;;;;;;;;;5027607;28;20489;-64
2021/09/19 08:25:31;;;;;;;3.57;1.70;;;;;;;;;;5029693;28;20537;-64
2021/09/19 08:27:57;;;;;;;1.48;1.25;;;;;;;;;;5029165;28;20709;-64
2021/09/19 08:30:22;;;;;;;3.72;1.95;;;;;;;;;;5028904;28;20021;-64
2021/09/19 08:32:49;;;;;;;2.93;1.60;;;;;;;;;;5028351;28;20025;-64
2021/09/19 08:35:14;;;;;;;2.30;1.73;;;;;;;;;;5028734;28;20261;-65
2021/09/19 08:37:40;;;;;;;5.45;1.77;;;;;;;;;;5029412;28;20486;-64
2021/09/19 08:40:08;;;;;;;2.50;1.83;;;;;;;;;;5029015;28;20533;-63
2021/09/19 08:42:33;;;;;;;4.95;2.20;;;;;;;;;;5029018;28;20029;-64
2021/09/19 08:44:59;;;;;;;3.78;1.92;;;;;;;;;;5026972;28;20747;-64
2021/09/19 08:47:27;;;;;;;1.98;1.50;;;;;;;;;;5029416;28;20383;-63
2021/09/19 08:49:52;;;;;;;2.65;1.85;;;;;;;;;;5025190;28;20029;-64
2021/09/19 08:52:17;;;;;;;2.50;1.50;;;;;;;;;;5025206;28;20033;-64
2021/09/19 08:54:43;;;;;;;2.33;1.93;;;;;;;;;;5028735;28;20458;-64
2021/09/19 08:57:08;;;;;;;3.47;2.30;;;;;;;;;;5029006;28;20029;-64
2021/09/19 08:59:47;;;;;;;1.40;1.13;;;;;;;;;;5016913;28;20151;-65
2021/09/19 09:02:14;;;;;;;1.70;1.60;;;;;;;;;;5028616;28;20079;-67
2021/09/19 09:04:40;;;;;;;1.60;1.13;;;;;;;;;;5028636;28;20103;-65
2021/09/19 09:07:05;;;;;;;3.75;1.92;;;;;;;;;;5031697;28;20410;-64
2021/09/19 09:09:30;;;;;;;2.97;1.80;;;;;;;;;;5025049;28;20383;-65
2021/09/19 09:12:03;;;;;;;3.03;1.87;;;;;;;;;;5023769;28;20549;-64
2021/09/19 09:14:28;;;;;;;3.10;2.10;;;;;;;;;;5018122;28;20021;-65
2021/09/19 09:17:09;;;;;;;2.85;1.83;;;;;;;;;;5019682;28;20030;-64
2021/09/19 09:19:38;;;;;;;2.78;1.95;;;;;;;;;;5023900;28;20325;-65
2021/09/19 09:22:03;;;;;;;1.87;1.07;;;;;;;;;;5024082;28;20030;-64
2021/09/19 09:24:29;;;;;;;2.28;1.50;;;;;;;;;;5025355;28;20017;-64
2021/09/19 09:26:54;;;;;;;1.73;1.30;;;;;;;;;;5035033;28;20017;-64
2021/09/19 09:29:19;;;;;;;4.83;1.80;;;;;;;;;;5033358;28;20039;-67
2021/09/19 09:31:48;;;;;;;2.50;1.63;;;;;;;;;;5030408;28;20272;-64
2021/09/19 09:34:31;;;;;;;2.92;1.63;;;;;;;;;;5028394;28;20079;-65
2021/09/19 09:37:03;;;;;;;2.67;1.85;;;;;;;;;;5027780;28;20033;-64
2021/09/19 09:39:33;;;;;;;2.53;1.73;;;;;;;;;;5025817;28;20413;-64
2021/09/19 09:42:01;;;;;;;3.42;1.92;;;;;;;;;;5036954;28;20021;-65
2021/09/19 09:44:28;;;;;;;2.20;1.73;;;;;;;;;;5025367;28;20067;-64
2021/09/19 09:46:53;;;;;;;2.55;1.90;;;;;;;;;;5023996;28;20032;-64
2021/09/19 09:49:23;;;;;;;2.28;1.50;;;;;;;;;;5032214;28;20015;-65
2021/09/19 09:51:48;;;;;;;2.65;1.75;;;;;;;;;;5029689;28;20021;-65
2021/09/19 09:54:15;;;;;;;1.63;0.93;;;;;;;;;;5028496;28;20029;-64
2021/09/19 09:56:43;;;;;;;2.55;2.00;;;;;;;;;;5028307;28;20032;-64
2021/09/19 09:59:09;;;;;;;2.42;1.65;;;;;;;;;;5028828;28;20113;-66
2021/09/19 10:01:34;;;;;;;3.35;1.55;;;;;;;;;;5028380;28;20031;-66
2021/09/19 10:03:59;;;;;;;1.52;1.17;;;;;;;;;;5027264;28;20479;-67
2021/09/19 10:06:25;;;;;;;2.43;1.57;;;;;;;;;;5020570;28;20075;-67
2021/09/19 10:08:50;;;;;;;3.97;1.85;;;;;;;;;;5022333;28;20308;-67
2021/09/19 10:11:16;;;;;;;4.97;1.73;;;;;;;;;;5030431;28;20029;-66
2021/09/19 10:13:44;;;;;;;2.97;1.98;;;;;;;;;;5026214;28;20501;-66
2021/09/19 10:16:10;;;;;;;2.83;2.17;;;;;;;;;;5023830;28;20075;-67
2021/09/19 10:18:36;;;;;;;5.15;1.80;;;;;;;;;;5027588;28;20025;-66
2021/09/19 10:21:02;;;;;;;2.20;1.25;;;;;;;;;;5039693;28;20040;-67
2021/09/19 10:23:28;;;;;;;2.85;1.60;;;;;;;;;;5035742;28;20033;-68
2021/09/19 10:25:55;;;;;;;3.17;1.63;;;;;;;;;;5043682;28;20036;-68
2021/09/19 10:28:32;;;;;;;1.45;1.13;;;;;;;;;;5036607;28;20021;-68
2021/09/19 10:31:09;;;;;;;5.20;2.40;;;;;;;;;;5027802;28;20064;-67
2021/09/19 10:33:37;;;;;;;7.78;3.38;;;;;;;;;;5025911;28;20036;-66
2021/09/19 10:36:08;;;;;;;1.80;1.27;;;;;;;;;;5032692;28;20021;-66
2021/09/19 10:38:34;;;;;;;2.35;1.67;;;;;;;;;;5027706;28;20383;-67
2021/09/19 10:41:12;;;;;;;2.58;1.42;;;;;;;;;;5028073;28;20449;-67
2021/09/19 10:43:47;;;;;;;3.95;2.65;;;;;;;;;;5027789;28;20144;-68
2021/09/19 10:46:33;;;;;;;3.17;1.65;;;;;;;;;;5027812;28;20103;-67
2021/09/19 10:49:18;;;;;;;5.53;4.30;;;;;;;;;;5024530;28;20030;-67
2021/09/19 10:52:05;;;;;;;6.00;4.18;;;;;;;;;;5031140;28;20116;-67
2021/09/19 10:54:54;;;;;;;2.97;2.17;;;;;;;;;;5029211;28;20382;-68
2021/09/19 10:57:20;;;;;;;4.68;2.47;;;;;;;;;;5020191;28;20025;-66
2021/09/19 11:00:04;;;;;;;5.78;3.38;;;;;;;;;;5027866;28;20039;-67
2021/09/19 11:02:30;;;;;;;3.75;2.67;;;;;;;;;;5019641;28;20032;-67
2021/09/19 11:05:14;;;;;;;2.95;2.17;;;;;;;;;;5026069;28;20022;-67
2021/09/19 11:07:42;;;;;;;2.75;1.83;;;;;;;;;;5017531;28;20045;-66
2021/09/19 11:10:13;;;;;;;4.10;2.60;;;;;;;;;;5022833;28;20014;-66
2021/09/19 11:12:46;;;;;;;4.30;2.85;;;;;;;;;;5017617;28;20028;-67
2021/09/19 11:15:14;;;;;;;3.78;2.28;;;;;;;;;;5022685;28;20148;-68
2021/09/19 11:17:46;;;;;;;3.45;2.25;;;;;;;;;;5028620;28;20444;-67
2021/09/19 11:20:14;;;;;;;3.63;2.28;;;;;;;;;;5022665;28;20029;-67
2021/09/19 11:22:42;;;;;;;3.92;2.28;;;;;;;;;;5024828;28;20021;-65
2021/09/19 11:25:08;;;;;;;5.07;3.08;;;;;;;;;;5029578;28;20021;-65
2021/09/19 11:27:34;;;;;;;4.32;2.50;;;;;;;;;;5028906;28;20017;-65
2021/09/19 11:30:00;;;;;;;3.33;2.50;;;;;;;;;;5028598;28;20075;-64
2021/09/19 11:32:25;;;;;;;5.32;2.15;;;;;;;;;;5025380;28;20025;-64
2021/09/19 11:34:51;;;;;;;4.40;2.22;;;;;;;;;;5024207;28;20045;-64
2021/09/19 11:37:16;;;;;;;3.78;2.42;;;;;;;;;;5020695;28;20366;-65
2021/09/19 11:39:41;;;;;;;3.00;1.52;;;;;;;;;;5028715;28;20052;-63
2021/09/19 11:42:11;;;;;;;3.33;2.20;;;;;;;;;;5026860;28;20026;-64
2021/09/19 11:44:42;;;;;;;4.28;2.13;;;;;;;;;;5027614;28;20299;-63
2021/09/19 11:47:07;;;;;;;4.47;2.60;;;;;;;;;;5024311;28;20033;-64
2021/09/19 11:49:33;;;;;;;5.25;3.03;;;;;;;;;;5023412;28;20024;-64
2021/09/19 11:51:58;;;;;;;3.07;2.13;;;;;;;;;;5022691;28;20025;-66
2021/09/19 11:54:23;;;;;;;4.05;2.40;;;;;;;;;;5027326;28;20311;-66
2021/09/19 11:56:49;;;;;;;3.53;2.40;;;;;;;;;;5031058;28;20057;-65
2021/09/19 11:59:16;;;;;;;4.82;3.28;;;;;;;;;;5030026;28;20029;-65
2021/09/19 12:01:41;;;;;;;4.00;2.63;;;;;;;;;;5032756;28;20032;-66
2021/09/19 12:04:08;;;;;;;3.97;2.50;;;;;;;;;;5032822;28;20022;-65
2021/09/19 12:06:33;;;;;;;4.03;2.55;;;;;;;;;;5031834;28;20163;-65
2021/09/19 12:08:58;;;;;;;3.00;2.50;;;;;;;;;;5034851;28;20101;-63
2021/09/19 12:11:56;;;;;;;3.60;2.42;;;;;;;;;;5034070;28;20663;-64
2021/09/19 12:14:22;;;;;;;3.25;2.53;;;;;;;;;;5001848;28;20041;-63
2021/09/19 12:17:03;;;;;;;3.97;2.85;;;;;;;;;;5037878;28;20017;-64
2021/09/19 12:19:28;;;;;;;;;;;;;;;;;;5029500;28;20029;-64
2021/09/19 12:22:01;;;;;;;6.90;3.10;;;;;;;;;;5031961;28;19940;-64
2021/09/19 12:24:28;;;;;;;4.18;2.53;;;;;;;;;;5032023;28;20536;-67
2021/09/19 12:27:08;;;;;;;3.33;2.45;;;;;;;;;;5031578;28;20033;-65
2021/09/19 12:29:33;;;;;;;4.60;2.92;;;;;;;;;;5044056;28;20025;-66
2021/09/19 12:32:00;;;;;;;5.90;2.43;;;;;;;;;;5038324;28;20036;-66
2021/09/19 12:34:26;;;;;;;2.63;2.25;;;;;;;;;;5035819;28;20268;-66
2021/09/19 12:36:52;;;;;;;3.22;2.25;;;;;;;;;;5028123;28;20159;-66
2021/09/19 12:39:18;;;;;;;3.63;2.53;;;;;;;;;;5029268;28;20028;-66
2021/09/19 12:41:44;;;;;;;4.00;2.40;;;;;;;;;;5033177;28;20112;-67
2021/09/19 12:44:15;;;;;;;3.15;2.00;;;;;;;;;;5032347;28;20009;-66
2021/09/19 12:46:47;;;;;;;3.92;2.80;;;;;;;;;;5036456;28;20512;-66
2021/09/19 12:49:22;;;;;;;3.10;2.58;;;;;;;;;;5030505;28;20033;-66
2021/09/19 12:52:04;;;;;;;4.65;2.80;;;;;;;;;;5036390;28;20029;-66
2021/09/19 12:54:30;;;;;;;2.72;2.28;;;;;;;;;;5046906;28;20029;-67
2021/09/19 12:56:55;;;;;;;4.47;2.22;;;;;;;;;;5041552;28;20025;-66
2021/09/19 12:59:21;;;;;;;4.15;2.67;;;;;;;;;;5036243;28;20021;-66
2021/09/19 13:01:46;;;;;;;5.13;2.30;;;;;;;;;;5037300;28;20448;-67
2021/09/19 13:04:11;;;;;;;4.25;2.60;;;;;;;;;;5031595;28;20468;-66
2021/09/19 13:06:36;;;;;;;5.20;2.23;;;;;;;;;;5025279;28;20028;-66
2021/09/19 13:09:02;;;;;;;3.43;2.30;;;;;;;;;;5030863;28;21058;-66
2021/09/19 13:11:27;;;;;;;2.75;2.03;;;;;;;;;;5031482;28;20263;-66
2021/09/19 13:13:52;;;;;;;4.70;2.95;;;;;;;;;;5030470;28;20025;-66
2021/09/19 13:16:17;;;;;;;3.67;1.97;;;;;;;;;;5020819;28;20069;-66
2021/09/19 13:18:43;;;;;;;3.67;2.37;;;;;;;;;;5047107;28;20286;-66
2021/09/19 13:21:08;;;;;;;2.88;1.83;;;;;;;;;;5030650;28;20288;-66
2021/09/19 13:23:33;;;;;;;2.60;2.10;;;;;;;;;;5031172;28;20017;-66
2021/09/19 13:25:58;;;;;;;3.50;2.03;;;;;;;;;;5044385;28;20975;-65
2021/09/19 13:28:23;;;;;;;2.63;1.70;;;;;;;;;;5031782;28;20029;-66
2021/09/19 13:30:49;;;;;;;2.50;1.90;;;;;;;;;;5031375;28;20283;-67
2021/09/19 13:33:14;;;;;;;3.15;1.92;;;;;;;;;;5051202;28;20302;-68
2021/09/19 13:35:39;;;;;;;2.92;2.20;;;;;;;;;;5034120;28;20026;-67
2021/09/19 13:38:04;;;;;;;3.13;2.30;;;;;;;;;;5031393;28;20028;-67
2021/09/19 13:40:29;;;;;;;3.90;2.10;;;;;;;;;;5031430;28;20060;-67
2021/09/19 13:42:55;;;;;;;5.85;2.20;;;;;;;;;;5031412;28;20266;-68
2021/09/19 13:45:20;;;;;;;3.77;2.53;;;;;;;;;;5032602;28;20025;-67
2021/09/19 13:47:45;;;;;;;2.58;2.00;;;;;;;;;;5045102;28;20624;-67
2021/09/19 13:50:11;;;;;;;2.88;2.00;;;;;;;;;;5030993;28;20550;-68
2021/09/19 13:52:36;;;;;;;2.97;2.58;;;;;;;;;;5030894;28;20021;-67
2021/09/19 13:55:01;;;;;;;4.90;2.75;;;;;;;;;;5031134;28;20452;-67
2021/09/19 13:57:27;;;;;;;3.22;2.38;;;;;;;;;;5031178;28;20470;-67
2021/09/19 13:59:52;;;;;;;3.78;2.50;;;;;;;;;;5034834;28;20465;-66
2021/09/19 14:02:17;;;;;;;3.80;2.40;;;;;;;;;;5050706;28;20108;-68
2021/09/19 14:04:42;;;;;;;4.72;2.20;;;;;;;;;;5037975;28;20672;-67
2021/09/19 14:07:07;;;;;;;3.53;2.23;;;;;;;;;;5030663;28;20060;-67
2021/09/19 14:09:33;;;;;;;2.53;2.23;;;;;;;;;;5030980;28;20655;-67
2021/09/19 14:11:58;;;;;;;3.27;2.33;;;;;;;;;;5030546;28;20256;-64
2021/09/19 14:14:23;;;;;;;3.10;2.37;;;;;;;;;;5030941;28;20288;-65
2021/09/19 14:16:48;;;;;;;3.17;1.90;;;;;;;;;;5030591;28;20314;-65
2021/09/19 14:19:14;;;;;;;3.78;2.42;;;;;;;;;;5030991;28;20252;-65
2021/09/19 14:21:39;;;;;;;4.63;3.15;;;;;;;;;;5030320;28;20021;-63
2021/09/19 14:24:05;;;;;;;3.05;2.20;;;;;;;;;;5030068;28;20025;-64
2021/09/19 14:26:31;;;;;;;4.93;2.45;;;;;;;;;;5030504;28;20021;-64
2021/09/19 14:28:56;;;;;;;8.02;2.70;;;;;;;;;;5038254;28;20362;-64
2021/09/19 14:31:21;;;;;;;7.82;2.50;;;;;;;;;;5050528;28;20021;-63
2021/09/19 14:33:46;;;;;;;3.75;2.85;;;;;;;;;;5044068;28;20022;-63
2021/09/19 14:36:12;;;;;;;3.93;2.60;;;;;;;;;;5030366;28;20626;-63
2021/09/19 14:38:37;;;;;;;3.60;2.60;;;;;;;;;;5030756;28;20355;-64